Happy Falcon — OXPC2 — position and weather

sailwx.info

Track history (hours):
 
Tides and Currents Weather Stations Pressure Air Temp Water Temp Dewpoint Dewpoint Depression Visibility Wind Speed Wind Dir Waves Ship Positions

Happy Falcon

Last reported at 2018-Feb-18 01:05 UTC. Time now 2018-Feb-18 01:46 UTC.
Position N 53°39' W 000°13'.

Length 96 m; draft 4.6 m.

Type: Ship. MMSI: 219876000.

Date/timePositionNaut miles runAvg speedWind from/ knotsBaromVisibWave heightAir tempDewpointWater temp
2018-Feb-18 01:05N 53°39' W 000°13'0 0.0
2018-Feb-18 00:59N 53°39' W 000°13'0 0.0
2018-Feb-18 00:23N 53°39' W 000°13'0 0.0
2018-Feb-17 23:56N 53°39' W 000°13'0 0.0
2018-Feb-17 23:29N 53°39' W 000°13'0 0.0
2018-Feb-17 23:00N 53°39' W 000°13'1 1.6
2018-Feb-17 22:29N 53°38' W 000°11'2 4.3
2018-Feb-17 22:00N 53°38' W 000°08'5 9.2
2018-Feb-17 21:31N 53°36' W 000°01'5 9.7
2018-Feb-17 21:00N 53°34' E 000°07'25 2.8
2018-Feb-17 12:14N 53°58' E 000°15'311.8
2018-Feb-17 12:00N 54°01' E 000°13'510.9
2018-Feb-17 11:30N 54°06' E 000°12'611.6
2018-Feb-17 11:00N 54°10' E 000°06'611.6
2018-Feb-17 10:30N 54°15' W 000°01'611.8
2018-Feb-17 10:00N 54°19' W 000°08'611.6
2018-Feb-17 09:30N 54°24' W 000°14'612.2
2018-Feb-17 09:00N 54°28' W 000°21'612.4
2018-Feb-17 08:30N 54°33' W 000°28'25 1.5
2018-Feb-16 15:38N 54°43' W 001°08'2 9.1
2018-Feb-16 15:26N 54°45' W 001°10'1 2.7
2018-Feb-16 14:54N 54°46' W 001°11'0 0.1
2018-Feb-16 14:24N 54°46' W 001°11'0 0.1
2018-Feb-16 13:54N 54°46' W 001°11'0 0.0
2018-Feb-16 13:30N 54°46' W 001°11'0 0.1
2018-Feb-16 13:00N 54°46' W 001°11'0 0.0
2018-Feb-16 12:30N 54°46' W 001°11'0 0.0
2018-Feb-16 11:27N 54°46' W 001°11'0 0.0
2018-Feb-16 11:00N 54°46' W 001°11'0 0.0
2018-Feb-16 09:45N 54°46' W 001°11'0 0.0
2018-Feb-16 09:30N 54°46' W 001°11'0 0.0
2018-Feb-16 07:33N 54°46' W 001°11'0 0.0
2018-Feb-16 07:30N 54°46' W 001°11'0 0.0
2018-Feb-16 07:00N 54°46' W 001°11'0 0.0
2018-Feb-16 06:21N 54°46' W 001°11'0 0.0
2018-Feb-16 05:48N 54°46' W 001°11'0 0.0
2018-Feb-16 05:18N 54°46' W 001°11'0 0.1
2018-Feb-16 04:54N 54°46' W 001°11'0 0.0
2018-Feb-16 04:24N 54°46' W 001°11'0 0.1
2018-Feb-16 03:54N 54°46' W 001°11'0 0.0
2018-Feb-16 03:24N 54°46' W 001°11'0 0.0
2018-Feb-16 02:51N 54°46' W 001°11'0 0.0
2018-Feb-16 02:27N 54°46' W 001°11'0 0.1
2018-Feb-16 01:57N 54°46' W 001°11'0 0.1
2018-Feb-16 01:27N 54°46' W 001°11'0 0.0
2018-Feb-16 00:57N 54°46' W 001°11'0 0.1
2018-Feb-16 00:30N 54°46' W 001°11'3 6.3
2018-Feb-16 00:00N 54°45' W 001°06'2313.0
2018-Feb-15 22:12N 54°34' W 000°30'313.8
2018-Feb-15 22:01N 54°32' W 000°27'714.0
2018-Feb-15 21:30N 54°27' W 000°19'714.0
2018-Feb-15 21:01N 54°21' W 000°12'713.7
2018-Feb-15 20:30N 54°16' W 000°05'713.2
2018-Feb-15 20:00N 54°12' E 000°04'612.9
2018-Feb-15 19:30N 54°07' E 000°11'612.4
2018-Feb-15 19:00N 54°01' E 000°16'29 9.8
2018-Feb-15 16:04N 53°33' E 000°08'110.8
2018-Feb-15 15:58N 53°34' E 000°06'4 9.0
2018-Feb-15 15:30N 53°35' W 000°01'510.6
2018-Feb-15 15:00N 53°38' W 000°08'3 4.8
2018-Feb-15 14:26N 53°39' W 000°13'0 0.0
2018-Feb-15 13:59N 53°39' W 000°13'0 0.0
2018-Feb-15 13:29N 53°39' W 000°13'0 0.0
2018-Feb-15 12:59N 53°39' W 000°13'0 0.0
2018-Feb-15 12:29N 53°39' W 000°13'0 0.0
2018-Feb-15 11:59N 53°39' W 000°13'0 0.0
2018-Feb-15 11:29N 53°39' W 000°13'0 0.0
2018-Feb-15 10:59N 53°39' W 000°13'0 0.0
2018-Feb-15 10:23N 53°39' W 000°13'0 0.0
2018-Feb-15 09:59N 53°39' W 000°13'0 0.0
2018-Feb-15 09:26N 53°39' W 000°13'0 0.0
2018-Feb-15 08:59N 53°39' W 000°13'0 0.0
2018-Feb-15 08:29N 53°39' W 000°13'0 0.0
2018-Feb-15 07:59N 53°39' W 000°13'0 0.0
2018-Feb-15 07:29N 53°39' W 000°13'0 0.0
2018-Feb-15 06:59N 53°39' W 000°13'0 0.0
2018-Feb-15 06:23N 53°39' W 000°13'0 0.0
2018-Feb-15 05:59N 53°39' W 000°13'0 0.0
2018-Feb-15 05:29N 53°39' W 000°13'0 0.0
2018-Feb-15 04:59N 53°39' W 000°13'0 0.0
2018-Feb-15 04:29N 53°39' W 000°13'0 0.0
2018-Feb-15 03:59N 53°39' W 000°13'0 0.0
2018-Feb-15 03:29N 53°39' W 000°13'0 0.0
2018-Feb-15 02:47N 53°39' W 000°13'0 0.0
2018-Feb-15 02:29N 53°39' W 000°13'0 0.0
2018-Feb-15 01:59N 53°39' W 000°13'0 0.0
2018-Feb-15 01:29N 53°39' W 000°13'0 0.0
2018-Feb-15 00:59N 53°39' W 000°13'0 0.0
2018-Feb-15 00:29N 53°39' W 000°13'0 0.0
2018-Feb-14 23:59N 53°39' W 000°13'0 0.0
2018-Feb-14 23:29N 53°39' W 000°13'0 0.0
2018-Feb-14 22:59N 53°39' W 000°13'0 0.0
2018-Feb-14 22:29N 53°39' W 000°13'0 0.0
2018-Feb-14 21:59N 53°39' W 000°13'0 0.0
2018-Feb-14 21:29N 53°39' W 000°13'0 0.0
2018-Feb-14 20:59N 53°39' W 000°13'0 0.0
2018-Feb-14 20:30N 53°39' W 000°13'0 0.1
2018-Feb-14 20:01N 53°39' W 000°12'2 4.0
2018-Feb-14 19:30N 53°38' W 000°09'5 9.7
2018-Feb-14 19:01N 53°36' W 000°02'510.1
2018-Feb-14 18:30N 53°34' E 000°06'43 2.8
2018-Feb-14 03:10N 53°17' E 001°13'211.0
2018-Feb-14 03:00N 53°16' E 001°15'611.4
2018-Feb-14 02:30N 53°11' E 001°20'612.1
2018-Feb-14 02:00N 53°06' E 001°25'612.6
2018-Feb-14 01:30N 53°00' E 001°30'714.4
2018-Feb-14 01:01N 52°55' E 001°38'715.0
2018-Feb-14 00:31N 52°50' E 001°47'714.1
2018-Feb-14 00:00N 52°46' E 001°57'4612.6
2018-Feb-13 20:21N 52°21' E 003°01'412.6
2018-Feb-13 19:59N 52°19' E 003°07'612.5
2018-Feb-13 19:30N 52°16' E 003°15'612.5
2018-Feb-13 19:00N 52°12' E 003°24'612.5
2018-Feb-13 18:30N 52°09' E 003°32'612.4
2018-Feb-13 18:01N 52°06' E 003°41'612.3
2018-Feb-13 17:30N 52°03' E 003°50'511.0
2018-Feb-13 17:01N 52°01' E 003°59'713.6
2018-Feb-13 16:31N 51°58' E 004°08'3 5.9
2018-Feb-13 15:58N 51°56' E 004°12'0 0.0
2018-Feb-13 15:28N 51°56' E 004°12'0 0.0
2018-Feb-13 14:58N 51°56' E 004°12'0 0.0
2018-Feb-13 14:25N 51°56' E 004°12'0 0.0
2018-Feb-13 13:58N 51°56' E 004°12'0 0.0
2018-Feb-13 13:28N 51°56' E 004°12'0 0.0
2018-Feb-13 12:58N 51°56' E 004°12'0 0.0
2018-Feb-13 12:28N 51°56' E 004°12'0 0.0
2018-Feb-13 11:58N 51°56' E 004°12'0 0.0
2018-Feb-13 11:28N 51°56' E 004°12'1 0.9
2018-Feb-13 10:47N 51°55' E 004°12'0 0.0
2018-Feb-13 09:29N 51°55' E 004°12'0 0.0
2018-Feb-13 08:53N 51°55' E 004°12'0 0.0
2018-Feb-13 08:20N 51°55' E 004°12'0 0.0
2018-Feb-13 07:56N 51°55' E 004°12'0 0.0
2018-Feb-13 07:29N 51°55' E 004°12'0 0.0
2018-Feb-13 06:56N 51°55' E 004°12'0 0.0
2018-Feb-13 06:26N 51°55' E 004°12'0 0.0
2018-Feb-13 05:59N 51°55' E 004°12'0 0.0
2018-Feb-13 05:17N 51°55' E 004°12'0 0.0
2018-Feb-13 04:47N 51°55' E 004°12'0 0.0
2018-Feb-13 04:26N 51°55' E 004°12'0 0.0
2018-Feb-13 03:53N 51°55' E 004°12'0 0.0
2018-Feb-13 03:29N 51°55' E 004°12'0 0.0
2018-Feb-13 02:11N 51°55' E 004°12'0 0.0
2018-Feb-13 01:47N 51°55' E 004°12'0 0.0
2018-Feb-13 01:17N 51°55' E 004°12'0 0.0
2018-Feb-13 00:44N 51°55' E 004°12'0 0.0
2018-Feb-13 00:17N 51°55' E 004°12'0 0.0
2018-Feb-12 23:50N 51°55' E 004°12'0 0.0
2018-Feb-12 23:20N 51°55' E 004°12'0 0.0
2018-Feb-12 22:56N 51°55' E 004°12'0 0.0
2018-Feb-12 22:08N 51°55' E 004°12'0 0.0
2018-Feb-12 21:56N 51°55' E 004°12'0 0.0
2018-Feb-12 21:23N 51°55' E 004°12'0 0.0
2018-Feb-12 20:53N 51°55' E 004°12'0 0.0
2018-Feb-12 20:17N 51°55' E 004°12'0 0.0
2018-Feb-12 19:59N 51°55' E 004°12'0 0.0
2018-Feb-12 19:29N 51°55' E 004°12'0 0.0
2018-Feb-12 19:00N 51°55' E 004°12'0 0.0
2018-Feb-12 18:30N 51°55' E 004°12'0 0.0
2018-Feb-12 18:00N 51°55' E 004°12'0 0.0
2018-Feb-12 17:30N 51°55' E 004°12'0 0.0
2018-Feb-12 17:00N 51°55' E 004°12'0 0.0
2018-Feb-12 16:30N 51°55' E 004°12'0 0.0
2018-Feb-12 16:00N 51°55' E 004°12'0 0.7
2018-Feb-12 15:30N 51°56' E 004°12'4 7.4
2018-Feb-12 15:00N 51°58' E 004°07'611.1
2018-Feb-12 14:30N 51°60' E 003°59'510.4
2018-Feb-12 14:00N 51°60' E 003°50'3 5.7
2018-Feb-12 13:29N 51°57' E 003°49'0 0.8
2018-Feb-12 12:51N 51°57' E 003°49'0 0.0
2018-Feb-12 11:09N 51°57' E 003°49'0 0.1
2018-Feb-12 11:00N 51°57' E 003°49'0 0.1
2018-Feb-12 10:30N 51°57' E 003°49'0 0.1
2018-Feb-12 09:00N 51°56' E 003°49'0 0.1
2018-Feb-12 08:21N 51°56' E 003°48'0 0.0
2018-Feb-12 07:42N 51°56' E 003°48'0 0.1
2018-Feb-12 07:24N 51°56' E 003°48'0 0.0
2018-Feb-12 06:51N 51°56' E 003°48'0 0.0
2018-Feb-12 06:15N 51°56' E 003°48'0 0.1
2018-Feb-12 05:57N 51°56' E 003°48'0 0.1
2018-Feb-12 05:30N 51°56' E 003°49'0 0.0
2018-Feb-12 04:57N 51°56' E 003°49'0 0.1
2018-Feb-12 04:27N 51°56' E 003°49'0 0.0
2018-Feb-12 03:57N 51°56' E 003°49'0 0.1
2018-Feb-12 03:21N 51°56' E 003°49'0 0.0
2018-Feb-12 02:51N 51°56' E 003°49'0 0.0
2018-Feb-12 02:21N 51°57' E 003°49'0 0.1
2018-Feb-12 01:45N 51°57' E 003°49'0 0.0
2018-Feb-12 01:30N 51°57' E 003°49'0 0.1
2018-Feb-12 00:54N 51°57' E 003°49'0 0.0
2018-Feb-12 00:24N 51°57' E 003°49'0 0.0
2018-Feb-11 23:51N 51°57' E 003°49'0 0.0
2018-Feb-11 23:30N 51°57' E 003°49'0 0.0
2018-Feb-11 22:45N 51°57' E 003°49'0 0.1
2018-Feb-11 22:27N 51°57' E 003°49'0 0.1
2018-Feb-11 22:00N 51°57' E 003°49'0 0.0
2018-Feb-11 21:27N 51°57' E 003°49'0 0.1
2018-Feb-11 21:00N 51°56' E 003°49'0 0.0
2018-Feb-11 20:21N 51°56' E 003°49'0 0.1
2018-Feb-11 19:57N 51°56' E 003°49'0 0.1
2018-Feb-11 19:15N 51°56' E 003°48'0 0.0
2018-Feb-11 18:57N 51°56' E 003°48'0 0.0
2018-Feb-11 18:27N 51°56' E 003°49'0 0.0
2018-Feb-11 18:00N 51°56' E 003°49'0 0.0
2018-Feb-11 17:24N 51°56' E 003°49'0 0.1
2018-Feb-11 16:51N 51°56' E 003°49'0 0.0
2018-Feb-11 16:30N 51°56' E 003°49'0 0.1
2018-Feb-11 15:57N 51°57' E 003°49'0 0.0
2018-Feb-11 15:30N 51°57' E 003°49'0 0.0
2018-Feb-11 14:57N 51°57' E 003°49'0 0.0
2018-Feb-11 14:27N 51°57' E 003°49'0 0.2
2018-Feb-11 13:51N 51°57' E 003°48'0 1.0
2018-Feb-11 13:30N 51°56' E 003°49'0 0.1
2018-Feb-11 13:00N 51°56' E 003°49'0 0.0
2018-Feb-11 12:30N 51°56' E 003°49'0 0.0
2018-Feb-11 11:58N 51°56' E 003°49'0 0.0
2018-Feb-11 11:30N 51°56' E 003°49'0 0.0
2018-Feb-11 11:00N 51°56' E 003°49'0 0.0
2018-Feb-11 10:30N 51°56' E 003°49'0 0.0
2018-Feb-11 10:00N 51°56' E 003°49'0 0.0
2018-Feb-11 09:30N 51°56' E 003°49'0 0.0
2018-Feb-11 09:00N 51°56' E 003°49'0 0.0
2018-Feb-11 08:30N 51°56' E 003°49'0 0.0
2018-Feb-11 08:00N 51°56' E 003°49'0 0.3
2018-Feb-11 07:30N 51°56' E 003°49'3 6.4
2018-Feb-11 07:00N 51°59' E 003°46'5 9.1
2018-Feb-11 06:29N 52°03' E 003°41'510.1
2018-Feb-11 06:00N 52°06' E 003°35'6710.0
2018-Feb-10 23:18N 52°44' E 002°05'4 8.8
2018-Feb-10 22:50N 52°46' E 001°59'310.0
2018-Feb-10 22:30N 52°47' E 001°54'511.0
2018-Feb-10 22:00N 52°49' E 001°46'611.1
2018-Feb-10 21:30N 52°54' E 001°40'611.3
2018-Feb-10 21:00N 52°58' E 001°33'611.5
2018-Feb-10 20:30N 53°03' E 001°28'611.9
2018-Feb-10 20:00N 53°08' E 001°23'612.0
2018-Feb-10 19:30N 53°13' E 001°17'612.1
2018-Feb-10 19:00N 53°18' E 001°12'4112.0
2018-Feb-10 15:33N 53°33' E 000°08'110.3
2018-Feb-10 15:30N 53°33' E 000°07'612.3
2018-Feb-10 15:00N 53°36' W 000°02'510.3
2018-Feb-10 14:30N 53°38' W 000°10'2 1.3
2018-Feb-10 13:17N 53°39' W 000°13'0 0.0
2018-Feb-10 12:29N 53°39' W 000°13'0 0.0
2018-Feb-10 11:59N 53°39' W 000°13'0 0.0
2018-Feb-10 11:29N 53°39' W 000°13'0 0.0
2018-Feb-10 10:53N 53°39' W 000°13'0 0.0
2018-Feb-10 10:17N 53°39' W 000°13'0 0.0
2018-Feb-10 09:53N 53°39' W 000°13'0 0.0
2018-Feb-10 09:23N 53°39' W 000°13'0 0.0
2018-Feb-10 08:53N 53°39' W 000°13'0 0.0
2018-Feb-10 08:11N 53°39' W 000°13'0 0.0
2018-Feb-10 07:17N 53°39' W 000°13'0 0.0
2018-Feb-10 06:53N 53°39' W 000°13'0 0.0
2018-Feb-10 06:11N 53°39' W 000°13'0 0.0
2018-Feb-10 05:59N 53°39' W 000°13'0 0.0
2018-Feb-10 04:59N 53°39' W 000°13'0 0.0
2018-Feb-10 02:11N 53°39' W 000°13'2 0.2
2018-Feb-09 15:00N 53°38' W 000°09'61 3.1
2018-Feb-08 19:30N 53°09' E 001°21'714.8
2018-Feb-08 19:00N 53°03' E 001°27'714.8
2018-Feb-08 18:30N 52°57' E 001°35'11711.7
2018-Feb-08 08:30N 51°26' E 003°34'17 8.3
2018-Feb-08 06:30N 51°26' E 004°01'15 4.3
2018-Feb-08 03:00N 51°17' E 004°20'1 0.6
2018-Feb-08 01:28N 51°16' E 004°20'  
Track history (hours):
 
Tides and Currents Weather Stations Pressure Air Temp Water Temp Dewpoint Dewpoint Depression Visibility Wind Speed Wind Dir Waves Ship Positions

Happy Falcon

Last reported at 2018-Feb-18 01:05 UTC. Time now 2018-Feb-18 01:46 UTC.
Position N 53°39' W 000°13'.

Length 96 m; draft 4.6 m.

Type: Ship. MMSI: 219876000.

Date/timePositionNaut miles runAvg speedWind from/ knotsBaromVisibWave heightAir tempDewpointWater temp
2018-Feb-18 01:05N 53°39' W 000°13'0 0.0
2018-Feb-18 00:59N 53°39' W 000°13'0 0.0
2018-Feb-18 00:23N 53°39' W 000°13'0 0.0
2018-Feb-17 23:56N 53°39' W 000°13'0 0.0
2018-Feb-17 23:29N 53°39' W 000°13'0 0.0
2018-Feb-17 23:00N 53°39' W 000°13'1 1.6
2018-Feb-17 22:29N 53°38' W 000°11'2 4.3
2018-Feb-17 22:00N 53°38' W 000°08'5 9.2
2018-Feb-17 21:31N 53°36' W 000°01'5 9.7
2018-Feb-17 21:00N 53°34' E 000°07'25 2.8
2018-Feb-17 12:14N 53°58' E 000°15'311.8
2018-Feb-17 12:00N 54°01' E 000°13'510.9
2018-Feb-17 11:30N 54°06' E 000°12'611.6
2018-Feb-17 11:00N 54°10' E 000°06'611.6
2018-Feb-17 10:30N 54°15' W 000°01'611.8
2018-Feb-17 10:00N 54°19' W 000°08'611.6
2018-Feb-17 09:30N 54°24' W 000°14'612.2
2018-Feb-17 09:00N 54°28' W 000°21'612.4
2018-Feb-17 08:30N 54°33' W 000°28'25 1.5
2018-Feb-16 15:38N 54°43' W 001°08'2 9.1
2018-Feb-16 15:26N 54°45' W 001°10'1 2.7
2018-Feb-16 14:54N 54°46' W 001°11'0 0.1
2018-Feb-16 14:24N 54°46' W 001°11'0 0.1
2018-Feb-16 13:54N 54°46' W 001°11'0 0.0
2018-Feb-16 13:30N 54°46' W 001°11'0 0.1
2018-Feb-16 13:00N 54°46' W 001°11'0 0.0
2018-Feb-16 12:30N 54°46' W 001°11'0 0.0
2018-Feb-16 11:27N 54°46' W 001°11'0 0.0
2018-Feb-16 11:00N 54°46' W 001°11'0 0.0
2018-Feb-16 09:45N 54°46' W 001°11'0 0.0
2018-Feb-16 09:30N 54°46' W 001°11'0 0.0
2018-Feb-16 07:33N 54°46' W 001°11'0 0.0
2018-Feb-16 07:30N 54°46' W 001°11'0 0.0
2018-Feb-16 07:00N 54°46' W 001°11'0 0.0
2018-Feb-16 06:21N 54°46' W 001°11'0 0.0
2018-Feb-16 05:48N 54°46' W 001°11'0 0.0
2018-Feb-16 05:18N 54°46' W 001°11'0 0.1
2018-Feb-16 04:54N 54°46' W 001°11'0 0.0
2018-Feb-16 04:24N 54°46' W 001°11'0 0.1
2018-Feb-16 03:54N 54°46' W 001°11'0 0.0
2018-Feb-16 03:24N 54°46' W 001°11'0 0.0
2018-Feb-16 02:51N 54°46' W 001°11'0 0.0
2018-Feb-16 02:27N 54°46' W 001°11'0 0.1
2018-Feb-16 01:57N 54°46' W 001°11'0 0.1
2018-Feb-16 01:27N 54°46' W 001°11'0 0.0
2018-Feb-16 00:57N 54°46' W 001°11'0 0.1
2018-Feb-16 00:30N 54°46' W 001°11'3 6.3
2018-Feb-16 00:00N 54°45' W 001°06'2313.0
2018-Feb-15 22:12N 54°34' W 000°30'313.8
2018-Feb-15 22:01N 54°32' W 000°27'714.0
2018-Feb-15 21:30N 54°27' W 000°19'714.0
2018-Feb-15 21:01N 54°21' W 000°12'713.7
2018-Feb-15 20:30N 54°16' W 000°05'713.2
2018-Feb-15 20:00N 54°12' E 000°04'612.9
2018-Feb-15 19:30N 54°07' E 000°11'612.4
2018-Feb-15 19:00N 54°01' E 000°16'29 9.8
2018-Feb-15 16:04N 53°33' E 000°08'110.8
2018-Feb-15 15:58N 53°34' E 000°06'4 9.0
2018-Feb-15 15:30N 53°35' W 000°01'510.6
2018-Feb-15 15:00N 53°38' W 000°08'3 4.8
2018-Feb-15 14:26N 53°39' W 000°13'0 0.0
2018-Feb-15 13:59N 53°39' W 000°13'0 0.0
2018-Feb-15 13:29N 53°39' W 000°13'0 0.0
2018-Feb-15 12:59N 53°39' W 000°13'0 0.0
2018-Feb-15 12:29N 53°39' W 000°13'0 0.0
2018-Feb-15 11:59N 53°39' W 000°13'0 0.0
2018-Feb-15 11:29N 53°39' W 000°13'0 0.0
2018-Feb-15 10:59N 53°39' W 000°13'0 0.0
2018-Feb-15 10:23N 53°39' W 000°13'0 0.0
2018-Feb-15 09:59N 53°39' W 000°13'0 0.0
2018-Feb-15 09:26N 53°39' W 000°13'0 0.0
2018-Feb-15 08:59N 53°39' W 000°13'0 0.0
2018-Feb-15 08:29N 53°39' W 000°13'0 0.0
2018-Feb-15 07:59N 53°39' W 000°13'0 0.0
2018-Feb-15 07:29N 53°39' W 000°13'0 0.0
2018-Feb-15 06:59N 53°39' W 000°13'0 0.0
2018-Feb-15 06:23N 53°39' W 000°13'0 0.0
2018-Feb-15 05:59N 53°39' W 000°13'0 0.0
2018-Feb-15 05:29N 53°39' W 000°13'0 0.0
2018-Feb-15 04:59N 53°39' W 000°13'0 0.0
2018-Feb-15 04:29N 53°39' W 000°13'0 0.0
2018-Feb-15 03:59N 53°39' W 000°13'0 0.0
2018-Feb-15 03:29N 53°39' W 000°13'0 0.0
2018-Feb-15 02:47N 53°39' W 000°13'0 0.0
2018-Feb-15 02:29N 53°39' W 000°13'0 0.0
2018-Feb-15 01:59N 53°39' W 000°13'0 0.0
2018-Feb-15 01:29N 53°39' W 000°13'0 0.0
2018-Feb-15 00:59N 53°39' W 000°13'0 0.0
2018-Feb-15 00:29N 53°39' W 000°13'0 0.0
2018-Feb-14 23:59N 53°39' W 000°13'0 0.0
2018-Feb-14 23:29N 53°39' W 000°13'0 0.0
2018-Feb-14 22:59N 53°39' W 000°13'0 0.0
2018-Feb-14 22:29N 53°39' W 000°13'0 0.0
2018-Feb-14 21:59N 53°39' W 000°13'0 0.0
2018-Feb-14 21:29N 53°39' W 000°13'0 0.0
2018-Feb-14 20:59N 53°39' W 000°13'0 0.0
2018-Feb-14 20:30N 53°39' W 000°13'0 0.1
2018-Feb-14 20:01N 53°39' W 000°12'2 4.0
2018-Feb-14 19:30N 53°38' W 000°09'5 9.7
2018-Feb-14 19:01N 53°36' W 000°02'510.1
2018-Feb-14 18:30N 53°34' E 000°06'43 2.8
2018-Feb-14 03:10N 53°17' E 001°13'211.0
2018-Feb-14 03:00N 53°16' E 001°15'611.4
2018-Feb-14 02:30N 53°11' E 001°20'612.1
2018-Feb-14 02:00N 53°06' E 001°25'612.6
2018-Feb-14 01:30N 53°00' E 001°30'714.4
2018-Feb-14 01:01N 52°55' E 001°38'715.0
2018-Feb-14 00:31N 52°50' E 001°47'714.1
2018-Feb-14 00:00N 52°46' E 001°57'4612.6
2018-Feb-13 20:21N 52°21' E 003°01'412.6
2018-Feb-13 19:59N 52°19' E 003°07'612.5
2018-Feb-13 19:30N 52°16' E 003°15'612.5
2018-Feb-13 19:00N 52°12' E 003°24'612.5
2018-Feb-13 18:30N 52°09' E 003°32'612.4
2018-Feb-13 18:01N 52°06' E 003°41'612.3
2018-Feb-13 17:30N 52°03' E 003°50'511.0
2018-Feb-13 17:01N 52°01' E 003°59'713.6
2018-Feb-13 16:31N 51°58' E 004°08'3 5.9
2018-Feb-13 15:58N 51°56' E 004°12'0 0.0
2018-Feb-13 15:28N 51°56' E 004°12'0 0.0
2018-Feb-13 14:58N 51°56' E 004°12'0 0.0
2018-Feb-13 14:25N 51°56' E 004°12'0 0.0
2018-Feb-13 13:58N 51°56' E 004°12'0 0.0
2018-Feb-13 13:28N 51°56' E 004°12'0 0.0
2018-Feb-13 12:58N 51°56' E 004°12'0 0.0
2018-Feb-13 12:28N 51°56' E 004°12'0 0.0
2018-Feb-13 11:58N 51°56' E 004°12'0 0.0
2018-Feb-13 11:28N 51°56' E 004°12'1 0.9
2018-Feb-13 10:47N 51°55' E 004°12'0 0.0
2018-Feb-13 09:29N 51°55' E 004°12'0 0.0
2018-Feb-13 08:53N 51°55' E 004°12'0 0.0
2018-Feb-13 08:20N 51°55' E 004°12'0 0.0
2018-Feb-13 07:56N 51°55' E 004°12'0 0.0
2018-Feb-13 07:29N 51°55' E 004°12'0 0.0
2018-Feb-13 06:56N 51°55' E 004°12'0 0.0
2018-Feb-13 06:26N 51°55' E 004°12'0 0.0
2018-Feb-13 05:59N 51°55' E 004°12'0 0.0
2018-Feb-13 05:17N 51°55' E 004°12'0 0.0
2018-Feb-13 04:47N 51°55' E 004°12'0 0.0
2018-Feb-13 04:26N 51°55' E 004°12'0 0.0
2018-Feb-13 03:53N 51°55' E 004°12'0 0.0
2018-Feb-13 03:29N 51°55' E 004°12'0 0.0
2018-Feb-13 02:11N 51°55' E 004°12'0 0.0
2018-Feb-13 01:47N 51°55' E 004°12'0 0.0
2018-Feb-13 01:17N 51°55' E 004°12'0 0.0
2018-Feb-13 00:44N 51°55' E 004°12'0 0.0
2018-Feb-13 00:17N 51°55' E 004°12'0 0.0
2018-Feb-12 23:50N 51°55' E 004°12'0 0.0
2018-Feb-12 23:20N 51°55' E 004°12'0 0.0
2018-Feb-12 22:56N 51°55' E 004°12'0 0.0
2018-Feb-12 22:08N 51°55' E 004°12'0 0.0
2018-Feb-12 21:56N 51°55' E 004°12'0 0.0
2018-Feb-12 21:23N 51°55' E 004°12'0 0.0
2018-Feb-12 20:53N 51°55' E 004°12'0 0.0
2018-Feb-12 20:17N 51°55' E 004°12'0 0.0
2018-Feb-12 19:59N 51°55' E 004°12'0 0.0
2018-Feb-12 19:29N 51°55' E 004°12'0 0.0
2018-Feb-12 19:00N 51°55' E 004°12'0 0.0
2018-Feb-12 18:30N 51°55' E 004°12'0 0.0
2018-Feb-12 18:00N 51°55' E 004°12'0 0.0
2018-Feb-12 17:30N 51°55' E 004°12'0 0.0
2018-Feb-12 17:00N 51°55' E 004°12'0 0.0
2018-Feb-12 16:30N 51°55' E 004°12'0 0.0
2018-Feb-12 16:00N 51°55' E 004°12'0 0.7
2018-Feb-12 15:30N 51°56' E 004°12'4 7.4
2018-Feb-12 15:00N 51°58' E 004°07'611.1
2018-Feb-12 14:30N 51°60' E 003°59'510.4
2018-Feb-12 14:00N 51°60' E 003°50'3 5.7
2018-Feb-12 13:29N 51°57' E 003°49'0 0.8
2018-Feb-12 12:51N 51°57' E 003°49'0 0.0
2018-Feb-12 11:09N 51°57' E 003°49'0 0.1
2018-Feb-12 11:00N 51°57' E 003°49'0 0.1
2018-Feb-12 10:30N 51°57' E 003°49'0 0.1
2018-Feb-12 09:00N 51°56' E 003°49'0 0.1
2018-Feb-12 08:21N 51°56' E 003°48'0 0.0
2018-Feb-12 07:42N 51°56' E 003°48'0 0.1
2018-Feb-12 07:24N 51°56' E 003°48'0 0.0
2018-Feb-12 06:51N 51°56' E 003°48'0 0.0
2018-Feb-12 06:15N 51°56' E 003°48'0 0.1
2018-Feb-12 05:57N 51°56' E 003°48'0 0.1
2018-Feb-12 05:30N 51°56' E 003°49'0 0.0
2018-Feb-12 04:57N 51°56' E 003°49'0 0.1
2018-Feb-12 04:27N 51°56' E 003°49'0 0.0
2018-Feb-12 03:57N 51°56' E 003°49'0 0.1
2018-Feb-12 03:21N 51°56' E 003°49'0 0.0
2018-Feb-12 02:51N 51°56' E 003°49'0 0.0
2018-Feb-12 02:21N 51°57' E 003°49'0 0.1
2018-Feb-12 01:45N 51°57' E 003°49'0 0.0
2018-Feb-12 01:30N 51°57' E 003°49'0 0.1
2018-Feb-12 00:54N 51°57' E 003°49'0 0.0
2018-Feb-12 00:24N 51°57' E 003°49'0 0.0
2018-Feb-11 23:51N 51°57' E 003°49'0 0.0
2018-Feb-11 23:30N 51°57' E 003°49'0 0.0
2018-Feb-11 22:45N 51°57' E 003°49'0 0.1
2018-Feb-11 22:27N 51°57' E 003°49'0 0.1
2018-Feb-11 22:00N 51°57' E 003°49'0 0.0
2018-Feb-11 21:27N 51°57' E 003°49'0 0.1
2018-Feb-11 21:00N 51°56' E 003°49'0 0.0
2018-Feb-11 20:21N 51°56' E 003°49'0 0.1
2018-Feb-11 19:57N 51°56' E 003°49'0 0.1
2018-Feb-11 19:15N 51°56' E 003°48'0 0.0
2018-Feb-11 18:57N 51°56' E 003°48'0 0.0
2018-Feb-11 18:27N 51°56' E 003°49'0 0.0
2018-Feb-11 18:00N 51°56' E 003°49'0 0.0
2018-Feb-11 17:24N 51°56' E 003°49'0 0.1
2018-Feb-11 16:51N 51°56' E 003°49'0 0.0
2018-Feb-11 16:30N 51°56' E 003°49'0 0.1
2018-Feb-11 15:57N 51°57' E 003°49'0 0.0
2018-Feb-11 15:30N 51°57' E 003°49'0 0.0
2018-Feb-11 14:57N 51°57' E 003°49'0 0.0
2018-Feb-11 14:27N 51°57' E 003°49'0 0.2
2018-Feb-11 13:51N 51°57' E 003°48'0 1.0
2018-Feb-11 13:30N 51°56' E 003°49'0 0.1
2018-Feb-11 13:00N 51°56' E 003°49'0 0.0
2018-Feb-11 12:30N 51°56' E 003°49'0 0.0
2018-Feb-11 11:58N 51°56' E 003°49'0 0.0
2018-Feb-11 11:30N 51°56' E 003°49'0 0.0
2018-Feb-11 11:00N 51°56' E 003°49'0 0.0
2018-Feb-11 10:30N 51°56' E 003°49'0 0.0
2018-Feb-11 10:00N 51°56' E 003°49'0 0.0
2018-Feb-11 09:30N 51°56' E 003°49'0 0.0
2018-Feb-11 09:00N 51°56' E 003°49'0 0.0
2018-Feb-11 08:30N 51°56' E 003°49'0 0.0
2018-Feb-11 08:00N 51°56' E 003°49'0 0.3
2018-Feb-11 07:30N 51°56' E 003°49'3 6.4
2018-Feb-11 07:00N 51°59' E 003°46'5 9.1
2018-Feb-11 06:29N 52°03' E 003°41'510.1
2018-Feb-11 06:00N 52°06' E 003°35'6710.0
2018-Feb-10 23:18N 52°44' E 002°05'4 8.8
2018-Feb-10 22:50N 52°46' E 001°59'310.0
2018-Feb-10 22:30N 52°47' E 001°54'511.0
2018-Feb-10 22:00N 52°49' E 001°46'611.1
2018-Feb-10 21:30N 52°54' E 001°40'611.3
2018-Feb-10 21:00N 52°58' E 001°33'611.5
2018-Feb-10 20:30N 53°03' E 001°28'611.9
2018-Feb-10 20:00N 53°08' E 001°23'612.0
2018-Feb-10 19:30N 53°13' E 001°17'612.1
2018-Feb-10 19:00N 53°18' E 001°12'4112.0
2018-Feb-10 15:33N 53°33' E 000°08'110.3
2018-Feb-10 15:30N 53°33' E 000°07'612.3
2018-Feb-10 15:00N 53°36' W 000°02'510.3
2018-Feb-10 14:30N 53°38' W 000°10'2 1.3
2018-Feb-10 13:17N 53°39' W 000°13'0 0.0
2018-Feb-10 12:29N 53°39' W 000°13'0 0.0
2018-Feb-10 11:59N 53°39' W 000°13'0 0.0
2018-Feb-10 11:29N 53°39' W 000°13'0 0.0
2018-Feb-10 10:53N 53°39' W 000°13'0 0.0
2018-Feb-10 10:17N 53°39' W 000°13'0 0.0
2018-Feb-10 09:53N 53°39' W 000°13'0 0.0
2018-Feb-10 09:23N 53°39' W 000°13'0 0.0
2018-Feb-10 08:53N 53°39' W 000°13'0 0.0
2018-Feb-10 08:11N 53°39' W 000°13'0 0.0
2018-Feb-10 07:17N 53°39' W 000°13'0 0.0
2018-Feb-10 06:53N 53°39' W 000°13'0 0.0
2018-Feb-10 06:11N 53°39' W 000°13'0 0.0
2018-Feb-10 05:59N 53°39' W 000°13'0 0.0
2018-Feb-10 04:59N 53°39' W 000°13'0 0.0
2018-Feb-10 02:11N 53°39' W 000°13'2 0.2
2018-Feb-09 15:00N 53°38' W 000°09'61 3.1
2018-Feb-08 19:30N 53°09' E 001°21'714.8
2018-Feb-08 19:00N 53°03' E 001°27'714.8
2018-Feb-08 18:30N 52°57' E 001°35'11711.7
2018-Feb-08 08:30N 51°26' E 003°34'17 8.3
2018-Feb-08 06:30N 51°26' E 004°01'15 4.3
2018-Feb-08 03:00N 51°17' E 004°20'1 0.6
2018-Feb-08 01:28N 51°16' E 004°20'  

Dump ship's entire track history